createdAt,value
2023-03-21T00:03:14.878Z,30.05
2023-03-21T00:09:55.205Z,27.15
2023-03-21T00:12:53.989Z,28.75
2023-03-21T00:19:51.885Z,29.42
2023-03-21T00:22:55.080Z,28.05
2023-03-21T00:28:59.281Z,28.08
2023-03-21T00:31:42.277Z,28.55
2023-03-21T00:34:54.516Z,27.73
2023-03-21T00:38:36.190Z,28.08
2023-03-21T00:41:42.976Z,27.65
2023-03-21T00:44:27.625Z,28.65
2023-03-21T00:47:14.258Z,28.35
2023-03-21T00:50:58.541Z,28.52
2023-03-21T00:53:45.961Z,28.08
2023-03-21T00:57:00.103Z,28.45
2023-03-21T01:00:34.626Z,27.83
2023-03-21T01:03:55.306Z,26.40
2023-03-21T01:10:00.435Z,30.67
2023-03-21T01:13:09.412Z,28.77
2023-03-21T01:16:09.367Z,29.77
2023-03-21T01:19:25.396Z,29.33
2023-03-21T01:22:15.172Z,28.48
2023-03-21T01:25:24.579Z,28.15
2023-03-21T01:31:26.761Z,29.10
2023-03-21T01:34:24.940Z,29.42
2023-03-21T01:37:16.358Z,29.83
2023-03-21T01:41:48.131Z,34.25
2023-03-21T01:48:35.599Z,32.47
2023-03-21T01:54:02.743Z,33.33
2023-03-21T01:56:53.976Z,31.98
2023-03-21T01:59:57.215Z,32.65
2023-03-21T02:03:11.515Z,35.08
2023-03-21T02:06:34.370Z,35.80
2023-03-21T02:09:35.498Z,41.83
2023-03-21T02:12:40.566Z,39.20
2023-03-21T02:15:46.944Z,40.63
2023-03-21T02:19:12.630Z,41.85
2023-03-21T02:22:48.410Z,37.67
2023-03-21T02:29:31.977Z,29.05
2023-03-21T02:32:56.701Z,29.00
2023-03-21T02:35:50.638Z,29.85
2023-03-21T02:39:08.729Z,34.67
2023-03-21T02:42:42.114Z,35.88
2023-03-21T02:46:08.035Z,37.30
2023-03-21T02:49:56.260Z,34.00
2023-03-21T02:53:21.940Z,32.17
2023-03-21T02:56:21.800Z,35.50
2023-03-21T02:59:32.727Z,33.22
2023-03-21T03:02:31.019Z,31.42
2023-03-21T03:06:21.967Z,31.02
2023-03-21T03:09:53.995Z,30.75
2023-03-21T03:13:05.484Z,31.17
2023-03-21T03:16:43.231Z,29.15
2023-03-21T03:19:50.679Z,32.83
2023-03-21T03:22:44.873Z,30.52
2023-03-21T03:26:01.690Z,32.25
2023-03-21T03:28:54.836Z,42.90
2023-03-21T03:31:56.141Z,51.78
2023-03-21T03:35:08.758Z,45.42
2023-03-21T03:38:17.179Z,37.83
2023-03-21T03:41:40.474Z,33.33
2023-03-21T03:51:15.883Z,30.55
2023-03-21T03:54:41.016Z,31.27
2023-03-21T04:01:30.061Z,31.10
2023-03-21T04:04:25.888Z,30.02
2023-03-21T04:07:19.957Z,30.05
2023-03-21T04:10:00.406Z,29.27
2023-03-21T04:13:03.186Z,28.40
2023-03-21T04:19:27.257Z,28.42
2023-03-21T04:22:08.590Z,29.15
2023-03-21T04:25:06.603Z,30.48
2023-03-21T04:28:03.670Z,29.30
2023-03-21T04:31:25.936Z,28.90
2023-03-21T04:34:16.950Z,27.85
2023-03-21T04:37:03.159Z,29.83
2023-03-21T04:40:13.896Z,30.05
2023-03-21T04:42:55.994Z,30.55
2023-03-21T04:49:17.814Z,30.13
2023-03-21T04:53:21.250Z,30.65
2023-03-21T04:56:25.171Z,32.00
2023-03-21T05:03:09.309Z,31.35
2023-03-21T05:09:24.891Z,30.25
2023-03-21T05:12:27.308Z,33.00
2023-03-21T05:18:14.122Z,32.28
2023-03-21T05:21:10.651Z,32.67
2023-03-21T05:24:23.491Z,30.13
2023-03-21T05:28:05.304Z,33.40
2023-03-21T05:31:12.754Z,32.88
2023-03-21T05:34:52.210Z,33.10
2023-03-21T05:41:35.696Z,32.42
2023-03-21T05:44:58.726Z,34.92
2023-03-21T05:48:08.276Z,35.38
2023-03-21T05:51:50.716Z,35.15
2023-03-21T05:54:34.051Z,33.67
2023-03-21T05:57:36.855Z,32.35
2023-03-21T06:01:25.375Z,33.67
2023-03-21T06:04:18.923Z,32.90
2023-03-21T06:10:48.153Z,33.38
2023-03-21T06:13:47.492Z,31.88
2023-03-21T06:20:45.393Z,32.63
2023-03-21T06:23:44.592Z,33.65
2023-03-21T06:26:41.468Z,31.08
2023-03-21T06:29:48.528Z,33.53
2023-03-21T06:33:10.100Z,31.70
2023-03-21T07:09:28.104Z,29.17
2023-03-21T07:12:15.084Z,30.35
2023-03-21T07:15:30.640Z,31.73
2023-03-21T07:18:37.364Z,30.10
2023-03-21T07:24:17.461Z,29.85
2023-03-21T07:27:40.795Z,31.63
2023-03-21T07:30:39.560Z,35.53
2023-03-21T07:35:22.082Z,32.13
2023-03-21T07:38:06.237Z,28.90
2023-03-21T07:45:26.167Z,29.58
2023-03-21T07:50:40.390Z,29.63
2023-03-21T07:54:00.235Z,28.80
2023-03-21T07:59:57.165Z,28.20
2023-03-21T08:25:37.522Z,22.90
2023-03-21T08:29:04.938Z,25.67
2023-03-21T08:34:18.574Z,27.15
2023-03-21T08:36:45.673Z,25.45
2023-03-21T08:55:56.567Z,23.63
2023-03-21T08:58:59.111Z,24.85
2023-03-21T09:17:00.547Z,29.75
2023-03-21T09:32:32.510Z,23.67
2023-03-21T09:48:25.194Z,24.13
2023-03-21T10:19:41.484Z,21.35
2023-03-21T10:35:03.345Z,20.15
2023-03-21T11:39:37.909Z,20.38
2023-03-21T13:14:16.195Z,16.80
2023-03-21T13:17:36.692Z,17.40
2023-03-21T13:20:36.570Z,16.92
2023-03-21T13:23:57.379Z,15.77
2023-03-21T13:26:55.121Z,13.32
2023-03-21T13:30:09.134Z,12.23
2023-03-21T13:33:11.281Z,13.55
2023-03-21T13:36:51.498Z,14.52
2023-03-21T13:40:02.252Z,15.75
2023-03-21T13:42:59.762Z,15.43
2023-03-21T13:49:36.445Z,16.30
2023-03-21T13:52:43.353Z,18.13
2023-03-21T13:55:42.415Z,16.95
2023-03-21T13:58:38.686Z,16.80
2023-03-21T14:02:26.808Z,15.02
2023-03-21T14:06:40.759Z,15.77
2023-03-21T14:08:57.128Z,15.50
2023-03-21T14:11:53.144Z,15.25
2023-03-21T14:14:49.275Z,15.60
2023-03-21T14:21:25.241Z,15.05
2023-03-21T14:24:52.739Z,14.57
2023-03-21T14:28:21.226Z,14.88
2023-03-21T14:31:51.545Z,16.45
2023-03-21T14:35:14.253Z,15.07
2023-03-21T14:38:08.084Z,15.68
2023-03-21T14:41:29.778Z,16.17
2023-03-21T14:44:47.383Z,16.73
2023-03-21T14:48:36.391Z,16.20
2023-03-21T14:51:20.346Z,16.52
2023-03-21T14:54:09.526Z,18.15
2023-03-21T14:57:29.970Z,17.35
2023-03-21T15:00:36.574Z,16.95
2023-03-21T15:06:56.801Z,16.35
2023-03-21T15:09:37.866Z,18.02
2023-03-21T15:12:55.776Z,19.92
2023-03-21T15:16:15.352Z,21.75
2023-03-21T15:19:16.047Z,24.33
2023-03-21T15:26:03.489Z,22.38
2023-03-21T15:29:37.556Z,22.20
2023-03-21T15:32:25.875Z,22.73
2023-03-21T15:39:00.901Z,21.25
2023-03-21T15:41:54.986Z,22.55
2023-03-21T15:44:43.602Z,21.50
2023-03-21T15:55:23.813Z,19.88
2023-03-21T16:02:32.915Z,18.00
2023-03-21T16:05:36.883Z,18.30
2023-03-21T16:08:30.001Z,17.48
2023-03-21T16:26:28.288Z,17.27
2023-03-21T17:17:33.779Z,14.65
2023-03-21T18:16:34.330Z,21.13
2023-03-21T20:18:57.440Z,18.58
2023-03-21T20:21:26.529Z,20.00
2023-03-21T20:25:34.895Z,18.25
2023-03-21T21:02:16.293Z,16.58
2023-03-21T21:40:57.636Z,14.63
2023-03-21T21:44:23.021Z,14.07
2023-03-21T21:58:49.337Z,13.77
2023-03-21T22:05:54.852Z,13.70
2023-03-21T22:08:57.527Z,13.07
2023-03-21T22:11:45.113Z,12.43
2023-03-21T22:19:28.127Z,13.75
2023-03-21T22:40:54.393Z,15.73
2023-03-21T22:44:39.627Z,17.65
2023-03-21T22:50:41.256Z,14.68
2023-03-21T23:03:17.416Z,15.75
2023-03-21T23:06:43.494Z,14.52
2023-03-21T23:09:41.874Z,15.50
2023-03-21T23:12:36.450Z,14.90
2023-03-21T23:15:43.221Z,14.55
2023-03-21T23:21:40.643Z,15.73
2023-03-21T23:28:29.146Z,14.73
2023-03-21T23:32:03.609Z,14.45
2023-03-21T23:34:45.587Z,16.60
2023-03-21T23:37:44.771Z,15.60
2023-03-21T23:40:34.690Z,16.48
2023-03-21T23:43:30.450Z,17.08
2023-03-21T23:49:53.979Z,18.13
2023-03-21T23:52:50.926Z,17.27
2023-03-21T23:55:41.140Z,18.40
2023-03-21T23:58:43.064Z,18.02
